Aviation Digital Data Service (ADDS)

Output produced by METARs form (0132 UTC 30 August 2015)
found at http://aviationweather.gov/adds/metars/
 
KRWI 292320Z 3000/3024 VRB05KT P6SM SCT250 
     TEMPO 3009/3012 00000KT 5SM BR